KELN

Bowers Field Airport

Ellensburg, Washington, USA
METAR KELN 191453Z AUTO 00000KT 3SM HZ OVC033 15/11 A3010 RMK AO2 SLP185 T01500111 53007
Observed Flight Rules
Aug-19 @ 14:53 UTC (46 minutes ago) Marginal Visual Flight Rules
Visibility Clouds Conditions
3 miles
  • Overcast at 3,300' AGL
  • Haze
Temperatures Readings
Current 15°C / 59°F
Dewpoint 11°C / 52°F
Humidity 77%
Altimeter 30.1" Hg
Pressure 1018.5 hPa
Elevation 519
METAR KELN 191453Z AUTO 00000KT 3SM HZ OVC033 15/11 A3010 RMK AO2 SLP185 T01500111 53007
Observed Flight Rules
Aug-19 @ 14:53 UTC
(46 minutes ago)
MVFR
Clouds
  • Overcast at 3,300' AGL
Conditions
  • Haze
Temperature Dewpoint
15°C / 59°F 11°C / 52°F
Humidity Altimeter Pressure
77% 30.1" Hg 1018.5 hPa